createdAt,value
2022-08-01T00:00:19.622Z,99.90
2022-08-01T00:02:12.097Z,99.90
2022-08-01T00:03:44.455Z,99.90
2022-08-01T00:05:16.846Z,99.90
2022-08-01T00:06:49.045Z,99.90
2022-08-01T00:08:21.454Z,99.90
2022-08-01T00:09:53.684Z,99.90
2022-08-01T00:11:26.232Z,99.90
2022-08-01T00:12:58.354Z,99.90
2022-08-01T00:14:32.149Z,99.90
2022-08-01T00:16:05.165Z,99.90
2022-08-01T00:17:38.427Z,99.90
2022-08-01T00:19:10.578Z,99.90
2022-08-01T00:20:42.966Z,99.90
2022-08-01T00:22:15.224Z,99.90
2022-08-01T00:23:47.508Z,99.90
2022-08-01T00:25:19.647Z,99.90
2022-08-01T00:26:52.465Z,99.90
2022-08-01T00:28:24.686Z,99.90
2022-08-01T00:30:11.916Z,99.90
2022-08-01T00:31:46.389Z,99.90
2022-08-01T00:33:18.983Z,99.90
2022-08-01T00:34:51.267Z,99.90
2022-08-01T00:36:23.452Z,99.90
2022-08-01T00:37:55.928Z,99.90
2022-08-01T00:39:28.263Z,99.90
2022-08-01T00:41:00.454Z,99.90
2022-08-01T00:42:32.691Z,99.90
2022-08-01T00:44:06.654Z,99.90
2022-08-01T00:45:39.039Z,99.90
2022-08-01T00:47:11.287Z,99.90
2022-08-01T00:48:43.580Z,99.90
2022-08-01T00:50:15.993Z,99.90
2022-08-01T00:51:49.308Z,99.90
2022-08-01T00:53:21.573Z,99.90
2022-08-01T00:54:53.850Z,99.90
2022-08-01T00:56:28.492Z,99.90
2022-08-01T00:58:04.599Z,99.90
2022-08-01T00:59:41.363Z,99.90
2022-08-01T01:01:13.879Z,99.90
2022-08-01T01:02:46.246Z,99.90
2022-08-01T01:04:19.107Z,99.90
2022-08-01T01:06:25.380Z,99.90
2022-08-01T01:08:28.060Z,99.90
2022-08-01T01:10:18.729Z,99.90
2022-08-01T01:12:18.372Z,99.90
2022-08-01T01:14:05.202Z,99.90
2022-08-01T01:16:00.220Z,99.90
2022-08-01T01:17:51.854Z,99.90
2022-08-01T01:19:31.294Z,99.90
2022-08-01T01:21:18.708Z,99.90
2022-08-01T01:23:40.540Z,99.90
2022-08-01T01:26:03.857Z,99.90
2022-08-01T01:28:25.492Z,99.90
2022-08-01T01:30:01.401Z,99.90
2022-08-01T01:31:56.736Z,99.90
2022-08-01T01:33:32.852Z,99.90
2022-08-01T01:35:14.879Z,99.90
2022-08-01T01:36:50.804Z,99.90
2022-08-01T01:38:30.391Z,99.90
2022-08-01T01:40:06.634Z,99.90
2022-08-01T01:41:41.720Z,99.90
2022-08-01T01:43:16.568Z,99.90
2022-08-01T01:44:52.379Z,99.90
2022-08-01T01:46:28.137Z,99.90
2022-08-01T01:48:02.856Z,99.90
2022-08-01T01:49:36.162Z,99.90
2022-08-01T01:51:10.103Z,99.90
2022-08-01T01:52:46.260Z,99.90
2022-08-01T01:54:20.624Z,99.90
2022-08-01T01:55:58.912Z,99.90
2022-08-01T01:57:33.421Z,99.90
2022-08-01T01:59:06.028Z,99.90
2022-08-01T02:00:40.855Z,99.90
2022-08-01T02:02:17.287Z,99.90
2022-08-01T02:03:52.308Z,99.90
2022-08-01T02:05:27.288Z,99.90
2022-08-01T02:07:02.695Z,99.90
2022-08-01T02:08:36.826Z,99.90
2022-08-01T02:10:11.383Z,99.90
2022-08-01T02:12:07.429Z,99.90
2022-08-01T02:13:41.348Z,99.90
2022-08-01T02:15:16.619Z,99.90
2022-08-01T02:16:51.273Z,99.90
2022-08-01T02:18:23.940Z,99.90
2022-08-01T02:19:56.500Z,99.90
2022-08-01T02:21:38.380Z,99.90
2022-08-01T02:23:14.195Z,99.90
2022-08-01T02:25:12.305Z,99.90
2022-08-01T02:26:51.684Z,99.90
2022-08-01T02:28:32.964Z,99.90
2022-08-01T02:30:13.224Z,99.90
2022-08-01T02:31:48.480Z,99.90
2022-08-01T02:33:28.716Z,99.90
2022-08-01T02:35:08.632Z,99.90
2022-08-01T02:36:41.475Z,99.90
2022-08-01T02:38:15.913Z,99.90
2022-08-01T02:39:55.648Z,99.90
2022-08-01T02:41:30.634Z,99.90
2022-08-01T02:43:06.726Z,99.90
2022-08-01T02:44:44.414Z,99.90
2022-08-01T02:46:28.985Z,99.90
2022-08-01T02:48:12.591Z,99.90
2022-08-01T02:49:53.319Z,99.90
2022-08-01T02:51:27.736Z,99.90
2022-08-01T02:53:02.757Z,99.90
2022-08-01T02:54:38.152Z,99.90
2022-08-01T02:56:13.049Z,99.90
2022-08-01T02:57:52.587Z,99.90
2022-08-01T02:59:31.339Z,99.90
2022-08-01T03:01:08.225Z,99.90
2022-08-01T03:02:43.248Z,99.90
2022-08-01T03:04:19.759Z,99.90
2022-08-01T03:05:53.491Z,99.90
2022-08-01T03:07:34.190Z,99.90
2022-08-01T03:09:08.824Z,99.90
2022-08-01T03:10:45.503Z,99.90
2022-08-01T03:12:24.218Z,99.90
2022-08-01T03:14:01.004Z,99.90
2022-08-01T03:15:38.361Z,99.90
2022-08-01T03:17:12.488Z,99.90
2022-08-01T03:18:47.827Z,99.90
2022-08-01T03:20:25.707Z,99.90
2022-08-01T03:22:04.517Z,99.90
2022-08-01T03:23:39.303Z,99.90
2022-08-01T03:25:15.764Z,99.90
2022-08-01T03:26:49.998Z,99.90
2022-08-01T03:28:24.552Z,99.90
2022-08-01T03:30:06.024Z,99.90
2022-08-01T03:31:43.735Z,99.90
2022-08-01T03:33:16.452Z,99.90
2022-08-01T03:34:49.418Z,99.90
2022-08-01T03:36:27.768Z,99.90
2022-08-01T03:38:18.770Z,99.90
2022-08-01T03:40:03.309Z,99.90
2022-08-01T03:41:42.663Z,99.90
2022-08-01T03:43:28.053Z,99.90
2022-08-01T03:45:10.371Z,99.90
2022-08-01T03:46:57.533Z,99.90
2022-08-01T03:48:35.956Z,99.90
2022-08-01T03:50:12.571Z,99.90
2022-08-01T03:51:50.398Z,99.90
2022-08-01T03:53:29.704Z,99.90
2022-08-01T03:55:10.224Z,99.90
2022-08-01T03:56:44.508Z,99.90
2022-08-01T03:58:17.758Z,99.90
2022-08-01T03:59:51.044Z,99.90
2022-08-01T04:01:23.701Z,99.90
2022-08-01T04:02:57.204Z,99.90
2022-08-01T04:04:30.040Z,99.90
2022-08-01T04:06:06.663Z,99.90
2022-08-01T04:07:41.049Z,99.90
2022-08-01T04:09:13.978Z,99.90
2022-08-01T04:10:46.386Z,99.90
2022-08-01T04:12:23.458Z,99.90
2022-08-01T04:13:57.845Z,99.90
2022-08-01T04:15:30.341Z,99.90
2022-08-01T04:17:02.760Z,99.90
2022-08-01T04:18:35.422Z,99.90
2022-08-01T04:20:08.599Z,99.90
2022-08-01T04:21:41.440Z,99.90
2022-08-01T04:23:18.337Z,99.90
2022-08-01T04:24:57.414Z,99.90
2022-08-01T04:26:31.916Z,99.90
2022-08-01T04:28:12.099Z,99.90
2022-08-01T04:29:45.648Z,99.90
2022-08-01T04:31:20.231Z,99.90
2022-08-01T04:32:57.211Z,99.90
2022-08-01T04:34:34.546Z,99.90
2022-08-01T04:36:12.112Z,99.90
2022-08-01T04:37:47.001Z,99.90
2022-08-01T04:39:22.664Z,99.90
2022-08-01T04:40:57.388Z,99.90
2022-08-01T04:42:33.244Z,99.90
2022-08-01T04:44:07.865Z,99.90
2022-08-01T04:45:41.324Z,99.90
2022-08-01T04:47:14.765Z,99.90
2022-08-01T04:48:48.400Z,99.90
2022-08-01T04:50:22.857Z,99.90
2022-08-01T04:52:01.098Z,99.90
2022-08-01T04:53:33.519Z,99.90
2022-08-01T04:55:09.873Z,99.90
2022-08-01T04:56:42.601Z,99.90
2022-08-01T04:58:18.565Z,99.90
2022-08-01T04:59:57.680Z,99.90
2022-08-01T05:01:29.920Z,99.90
2022-08-01T05:03:02.117Z,99.90
2022-08-01T05:04:35.123Z,99.90
2022-08-01T05:06:07.741Z,99.90
2022-08-01T05:07:43.055Z,99.90
2022-08-01T05:09:17.730Z,99.90
2022-08-01T05:10:50.014Z,99.90
2022-08-01T05:12:22.445Z,99.90
2022-08-01T05:13:54.653Z,99.90
2022-08-01T05:15:28.037Z,99.90
2022-08-01T05:17:04.894Z,99.90
2022-08-01T05:18:37.507Z,99.90
2022-08-01T05:20:10.884Z,99.90
2022-08-01T05:21:43.112Z,99.90
2022-08-01T05:23:24.882Z,99.90
2022-08-01T05:25:08.055Z,99.90
2022-08-01T05:26:40.847Z,99.90
2022-08-01T05:28:12.966Z,99.90
2022-08-01T05:29:51.455Z,99.90
2022-08-01T05:31:23.862Z,99.90
2022-08-01T05:32:56.037Z,98.10
2022-08-01T05:34:30.023Z,85.40
2022-08-01T05:36:02.468Z,55.40
2022-08-01T05:37:35.223Z,37.10
2022-08-01T05:39:07.417Z,21.90
2022-08-01T05:40:39.689Z,5.90
2022-08-01T05:42:11.882Z,1.00
2022-08-01T05:43:44.248Z,1.00
2022-08-01T05:45:16.416Z,1.00
2022-08-01T05:46:48.658Z,1.00
2022-08-01T05:48:21.213Z,1.00
2022-08-01T05:49:53.605Z,99.90
2022-08-01T05:51:26.601Z,99.90
2022-08-01T05:52:58.753Z,1.00
2022-08-01T05:54:31.727Z,99.90
2022-08-01T05:56:04.411Z,1.00
2022-08-01T05:57:36.583Z,1.00
2022-08-01T05:59:11.652Z,1.00
2022-08-01T06:00:43.821Z,1.00
2022-08-01T06:02:16.248Z,1.00
2022-08-01T06:03:48.447Z,1.00
2022-08-01T06:05:20.752Z,99.90
2022-08-01T06:06:52.940Z,1.00
2022-08-01T06:08:25.342Z,99.90
2022-08-01T06:09:57.488Z,1.00
2022-08-01T06:11:29.653Z,1.00
2022-08-01T06:13:03.986Z,99.90
2022-08-01T06:14:36.475Z,23.60
2022-08-01T06:16:08.727Z,1.00
2022-08-01T06:17:42.243Z,1.00
2022-08-01T06:19:14.367Z,1.00
2022-08-01T06:20:47.141Z,1.00
2022-08-01T06:22:19.338Z,1.00
2022-08-01T06:23:51.535Z,1.00
2022-08-01T06:25:24.173Z,1.00
2022-08-01T06:26:56.524Z,99.90
2022-08-01T06:28:29.433Z,99.90
2022-08-01T06:30:01.758Z,99.90
2022-08-01T06:31:34.246Z,99.90
2022-08-01T06:33:06.676Z,99.90
2022-08-01T06:34:38.815Z,99.90
2022-08-01T06:36:10.965Z,99.90
2022-08-01T06:37:43.667Z,99.90
2022-08-01T06:39:16.012Z,99.90
2022-08-01T06:40:48.316Z,99.90
2022-08-01T06:42:20.472Z,99.90
2022-08-01T06:43:52.657Z,99.90
2022-08-01T06:45:26.836Z,95.50
2022-08-01T06:46:59.444Z,55.40
2022-08-01T06:48:31.747Z,29.50
2022-08-01T06:50:05.899Z,1.40
2022-08-01T06:51:42.264Z,1.00
2022-08-01T06:53:14.445Z,1.00
2022-08-01T06:54:46.647Z,1.00
2022-08-01T06:56:18.852Z,1.00
2022-08-01T06:57:53.818Z,1.00
2022-08-01T06:59:25.979Z,1.00
2022-08-01T07:00:58.298Z,1.00
2022-08-01T07:02:31.787Z,1.00
2022-08-01T07:04:04.676Z,1.00
2022-08-01T07:05:36.795Z,1.00
2022-08-01T07:07:09.156Z,1.00
2022-08-01T07:08:41.367Z,1.00
2022-08-01T07:10:14.035Z,1.00
2022-08-01T07:11:46.224Z,1.00
2022-08-01T07:13:22.202Z,1.00
2022-08-01T07:14:54.342Z,1.00
2022-08-01T07:16:26.684Z,1.00
2022-08-01T07:18:02.410Z,1.00
2022-08-01T07:19:34.660Z,1.00
2022-08-01T07:21:39.059Z,1.00
2022-08-01T07:23:03.044Z,1.00
2022-08-01T07:24:35.768Z,1.00
2022-08-01T07:26:08.304Z,1.00
2022-08-01T07:27:40.467Z,1.00
2022-08-01T07:29:12.847Z,1.00
2022-08-01T07:30:45.426Z,1.00
2022-08-01T07:32:17.590Z,1.00
2022-08-01T07:33:51.382Z,1.00
2022-08-01T07:35:24.079Z,1.00
2022-08-01T07:36:56.514Z,1.00
2022-08-01T07:38:28.665Z,1.00
2022-08-01T07:40:00.914Z,1.00
2022-08-01T07:41:52.873Z,1.00
2022-08-01T07:43:25.507Z,1.00
2022-08-01T07:44:57.647Z,1.00
2022-08-01T07:46:31.336Z,1.00
2022-08-01T07:48:08.877Z,1.00
2022-08-01T07:49:41.489Z,1.00
2022-08-01T07:51:13.792Z,1.00
2022-08-01T07:52:46.264Z,1.00
2022-08-01T07:54:19.412Z,1.00
2022-08-01T07:55:51.928Z,1.00
2022-08-01T07:57:25.476Z,1.00
2022-08-01T07:58:57.652Z,1.00
2022-08-01T08:00:30.127Z,1.00
2022-08-01T08:02:02.695Z,1.00
2022-08-01T08:03:34.958Z,1.00
2022-08-01T08:05:08.253Z,1.00
2022-08-01T08:06:42.252Z,1.00
2022-08-01T08:08:16.629Z,1.00
2022-08-01T08:09:51.260Z,1.00
2022-08-01T08:11:23.600Z,1.00
2022-08-01T08:12:55.984Z,1.00
2022-08-01T08:14:32.839Z,1.00
2022-08-01T08:16:05.373Z,1.00
2022-08-01T08:17:37.776Z,1.00
2022-08-01T08:19:10.536Z,1.00
2022-08-01T08:20:44.156Z,1.00
2022-08-01T08:22:16.289Z,1.00
2022-08-01T08:24:08.685Z,1.00
2022-08-01T08:25:41.710Z,1.00
2022-08-01T08:27:14.410Z,1.00
2022-08-01T08:28:47.399Z,1.00
2022-08-01T08:30:20.213Z,1.00
2022-08-01T08:32:03.455Z,1.00
2022-08-01T08:33:36.488Z,1.00
2022-08-01T08:35:09.315Z,1.00
2022-08-01T08:36:47.667Z,1.00
2022-08-01T08:38:20.548Z,1.00
2022-08-01T08:40:01.042Z,1.00
2022-08-01T08:41:37.767Z,1.00
2022-08-01T08:43:11.616Z,1.00
2022-08-01T08:44:44.615Z,1.00
2022-08-01T08:46:17.902Z,1.00
2022-08-01T08:48:01.348Z,1.00
2022-08-01T08:49:36.184Z,1.00
2022-08-01T08:51:12.355Z,1.00
2022-08-01T08:52:47.163Z,1.00
2022-08-01T08:54:28.070Z,1.00
2022-08-01T08:56:08.731Z,1.00
2022-08-01T08:57:44.873Z,1.00
2022-08-01T08:59:17.600Z,1.00
2022-08-01T09:00:50.014Z,1.00
2022-08-01T09:02:22.987Z,1.00
2022-08-01T09:03:55.793Z,1.00
2022-08-01T09:05:38.630Z,1.00
2022-08-01T09:07:12.792Z,1.00
2022-08-01T09:08:45.000Z,1.00
2022-08-01T09:10:17.396Z,1.00
2022-08-01T09:11:56.658Z,1.00
2022-08-01T09:13:37.582Z,1.00
2022-08-01T09:15:17.599Z,1.00
2022-08-01T09:17:09.877Z,1.00
2022-08-01T09:18:43.761Z,1.00
2022-08-01T09:20:25.435Z,1.00
2022-08-01T09:22:00.867Z,1.00
2022-08-01T09:23:54.360Z,1.00
2022-08-01T09:25:46.020Z,1.00
2022-08-01T09:27:26.501Z,1.00
2022-08-01T09:29:01.655Z,1.00
2022-08-01T09:30:40.836Z,1.00
2022-08-01T09:32:16.160Z,1.00
2022-08-01T09:34:00.166Z,1.00
2022-08-01T09:35:43.615Z,1.00
2022-08-01T09:37:18.883Z,1.00
2022-08-01T09:38:56.689Z,1.00
2022-08-01T09:40:58.045Z,1.00
2022-08-01T09:42:30.743Z,1.00
2022-08-01T09:44:03.205Z,1.00
2022-08-01T09:45:41.011Z,1.00
2022-08-01T09:47:15.815Z,1.00
2022-08-01T09:49:07.537Z,1.00
2022-08-01T09:50:50.246Z,1.00
2022-08-01T09:52:28.902Z,1.00
2022-08-01T09:54:06.247Z,1.00
2022-08-01T09:55:40.929Z,1.00
2022-08-01T09:57:20.933Z,1.00
2022-08-01T09:59:02.423Z,1.00
2022-08-01T10:00:45.357Z,1.00
2022-08-01T10:02:37.499Z,1.00
2022-08-01T10:04:17.023Z,1.00
2022-08-01T10:05:52.201Z,1.00
2022-08-01T10:07:44.105Z,1.00
2022-08-01T10:09:28.517Z,1.00
2022-08-01T10:11:14.140Z,1.00
2022-08-01T10:12:52.325Z,1.00
2022-08-01T10:14:27.463Z,1.00
2022-08-01T10:16:02.096Z,1.00
2022-08-01T10:17:50.578Z,1.00
2022-08-01T10:19:28.819Z,1.00
2022-08-01T10:21:08.601Z,1.00
2022-08-01T10:22:45.010Z,1.00
2022-08-01T10:24:19.753Z,1.00
2022-08-01T10:25:56.261Z,1.00
2022-08-01T10:27:38.174Z,1.00
2022-08-01T10:29:45.639Z,1.00
2022-08-01T10:31:12.735Z,1.00
2022-08-01T10:32:50.687Z,1.00
2022-08-01T10:34:24.701Z,1.00
2022-08-01T10:35:58.591Z,1.00
2022-08-01T10:37:52.440Z,1.00
2022-08-01T10:39:27.312Z,1.00
2022-08-01T10:41:06.474Z,1.00
2022-08-01T10:42:44.690Z,1.00
2022-08-01T10:44:18.421Z,1.00
2022-08-01T10:45:52.098Z,1.00
2022-08-01T10:47:50.658Z,1.00
2022-08-01T10:49:29.908Z,1.00
2022-08-01T10:51:18.157Z,1.00
2022-08-01T10:53:24.356Z,1.00
2022-08-01T10:55:10.537Z,1.00
2022-08-01T10:56:51.350Z,1.00
2022-08-01T10:58:42.798Z,1.00
2022-08-01T11:00:23.585Z,1.00
2022-08-01T11:02:03.678Z,1.00
2022-08-01T11:03:56.168Z,1.00
2022-08-01T11:05:33.106Z,1.00
2022-08-01T11:07:10.201Z,1.00
2022-08-01T11:08:52.311Z,1.00
2022-08-01T11:10:39.873Z,1.00
2022-08-01T11:12:23.457Z,1.00
2022-08-01T11:14:13.879Z,1.00
2022-08-01T11:15:49.991Z,1.00
2022-08-01T11:17:49.834Z,1.00
2022-08-01T11:20:13.870Z,1.00
2022-08-01T11:21:58.777Z,1.00
2022-08-01T11:23:48.640Z,1.00
2022-08-01T11:25:21.120Z,1.00
2022-08-01T11:27:33.689Z,1.00
2022-08-01T11:29:22.024Z,1.00
2022-08-01T11:31:16.995Z,1.00
2022-08-01T11:33:10.373Z,1.00
2022-08-01T11:34:56.099Z,1.00
2022-08-01T11:36:55.985Z,1.00
2022-08-01T11:38:30.913Z,1.00
2022-08-01T11:40:23.017Z,1.00
2022-08-01T11:42:21.182Z,1.00
2022-08-01T11:44:00.147Z,1.00
2022-08-01T11:45:53.858Z,1.00
2022-08-01T11:47:46.679Z,1.00
2022-08-01T11:49:45.237Z,1.00
2022-08-01T11:51:25.774Z,1.00
2022-08-01T11:53:05.552Z,1.00
2022-08-01T11:54:40.659Z,1.00
2022-08-01T11:56:13.307Z,1.00
2022-08-01T11:57:50.148Z,1.00
2022-08-01T11:59:23.672Z,1.00
2022-08-01T12:00:58.957Z,1.00
2022-08-01T12:02:35.068Z,1.00
2022-08-01T12:04:07.671Z,1.00
2022-08-01T12:05:43.121Z,1.00
2022-08-01T12:07:17.673Z,1.00
2022-08-01T12:08:49.964Z,1.00
2022-08-01T12:10:37.037Z,1.00
2022-08-01T12:12:21.575Z,1.00
2022-08-01T12:13:53.859Z,1.00
2022-08-01T12:15:38.807Z,1.00
2022-08-01T12:17:11.264Z,1.00
2022-08-01T12:18:44.471Z,1.00
2022-08-01T12:20:22.255Z,1.00
2022-08-01T12:22:27.400Z,1.00
2022-08-01T12:24:04.274Z,1.00
2022-08-01T12:25:38.088Z,1.00
2022-08-01T12:27:13.343Z,1.00
2022-08-01T12:28:45.583Z,1.00
2022-08-01T12:30:23.573Z,1.00
2022-08-01T12:31:55.903Z,1.00
2022-08-01T12:33:28.248Z,1.00
2022-08-01T12:35:09.360Z,1.00
2022-08-01T12:36:41.518Z,1.00
2022-08-01T12:38:24.035Z,1.00
2022-08-01T12:39:58.627Z,1.00
2022-08-01T12:41:30.824Z,1.00
2022-08-01T12:43:08.897Z,1.00
2022-08-01T12:44:45.413Z,1.00
2022-08-01T12:46:18.923Z,1.00
2022-08-01T12:47:53.202Z,1.00
2022-08-01T12:49:25.995Z,1.00
2022-08-01T12:51:02.246Z,1.00
2022-08-01T12:52:35.157Z,1.00
2022-08-01T12:54:11.005Z,1.00
2022-08-01T12:55:58.410Z,1.00
2022-08-01T12:57:32.570Z,1.00
2022-08-01T12:59:29.967Z,1.00
2022-08-01T13:01:12.215Z,1.00
2022-08-01T13:02:47.404Z,1.00
2022-08-01T13:04:20.704Z,1.00
2022-08-01T13:05:58.181Z,1.00
2022-08-01T13:07:45.983Z,1.00
2022-08-01T13:09:18.369Z,1.00
2022-08-01T13:11:00.745Z,1.00
2022-08-01T13:12:33.569Z,1.00
2022-08-01T13:14:05.751Z,1.00
2022-08-01T13:15:42.083Z,1.00
2022-08-01T13:17:36.319Z,1.00
2022-08-01T13:19:08.568Z,1.00
2022-08-01T13:20:40.756Z,1.00
2022-08-01T13:22:13.019Z,1.00
2022-08-01T13:24:08.215Z,1.00
2022-08-01T13:25:57.301Z,1.00
2022-08-01T13:27:30.991Z,1.00
2022-08-01T13:29:08.672Z,1.00
2022-08-01T13:30:51.392Z,1.00
2022-08-01T13:32:29.008Z,1.00
2022-08-01T13:34:02.884Z,1.00
2022-08-01T13:35:35.443Z,1.00
2022-08-01T13:37:07.756Z,1.00
2022-08-01T13:39:00.068Z,1.00
2022-08-01T13:40:32.333Z,1.00
2022-08-01T13:42:05.390Z,1.00
2022-08-01T13:43:58.438Z,1.00
2022-08-01T13:45:29.935Z,1.00
2022-08-01T13:47:15.004Z,1.00
2022-08-01T13:48:48.023Z,1.00
2022-08-01T13:50:22.777Z,1.00
2022-08-01T13:51:54.906Z,1.00
2022-08-01T13:53:28.272Z,1.00
2022-08-01T13:55:02.147Z,1.00
2022-08-01T13:56:34.458Z,1.00
2022-08-01T13:58:07.471Z,1.00
2022-08-01T13:59:39.744Z,1.00
2022-08-01T14:01:12.305Z,1.00
2022-08-01T14:02:44.576Z,1.00
2022-08-01T14:04:16.917Z,1.00
2022-08-01T14:05:49.886Z,1.00
2022-08-01T14:07:31.093Z,1.00
2022-08-01T14:09:17.903Z,1.00
2022-08-01T14:10:59.491Z,1.00
2022-08-01T14:12:32.147Z,1.00
2022-08-01T14:14:05.648Z,1.00
2022-08-01T14:15:40.695Z,1.00
2022-08-01T14:17:16.012Z,1.00
2022-08-01T14:18:48.460Z,1.00
2022-08-01T14:20:21.337Z,1.00
2022-08-01T14:21:53.635Z,1.00
2022-08-01T14:23:25.821Z,1.00
2022-08-01T14:25:01.477Z,1.00
2022-08-01T14:26:36.289Z,1.00
2022-08-01T14:28:08.660Z,1.00
2022-08-01T14:30:02.934Z,1.00
2022-08-01T14:31:34.495Z,1.00
2022-08-01T14:33:06.924Z,1.00
2022-08-01T14:34:39.098Z,1.00
2022-08-01T14:36:29.651Z,1.00
2022-08-01T14:38:04.647Z,1.00
2022-08-01T14:39:36.824Z,1.00
2022-08-01T14:41:09.069Z,1.00
2022-08-01T14:42:41.447Z,1.00
2022-08-01T14:44:13.783Z,1.00
2022-08-01T14:45:46.361Z,1.00
2022-08-01T14:47:21.909Z,1.00
2022-08-01T14:48:55.408Z,1.00
2022-08-01T14:50:28.909Z,1.00
2022-08-01T14:52:01.061Z,1.00
2022-08-01T14:53:35.913Z,1.00
2022-08-01T14:55:11.343Z,1.00
2022-08-01T14:56:43.859Z,1.00
2022-08-01T14:58:16.054Z,1.00
2022-08-01T14:59:48.400Z,1.00
2022-08-01T15:01:20.623Z,1.00
2022-08-01T15:02:53.048Z,1.00
2022-08-01T15:04:26.087Z,1.00
2022-08-01T15:05:58.513Z,1.00
2022-08-01T15:07:30.718Z,1.00
2022-08-01T15:09:08.271Z,1.00
2022-08-01T15:10:41.995Z,1.00
2022-08-01T15:12:14.329Z,1.00
2022-08-01T15:13:46.460Z,1.00
2022-08-01T15:15:19.048Z,1.00
2022-08-01T15:16:51.346Z,1.00
2022-08-01T15:18:23.508Z,1.00
2022-08-01T15:19:58.447Z,1.00
2022-08-01T15:21:41.166Z,1.00
2022-08-01T15:23:14.763Z,1.00
2022-08-01T15:24:47.052Z,1.00
2022-08-01T15:26:19.208Z,1.00
2022-08-01T15:27:51.571Z,1.00
2022-08-01T15:29:24.055Z,1.00
2022-08-01T15:30:56.184Z,1.00
2022-08-01T15:32:28.497Z,1.00
2022-08-01T15:34:01.883Z,1.00
2022-08-01T15:35:35.979Z,1.00
2022-08-01T15:37:10.500Z,1.00
2022-08-01T15:38:42.691Z,1.00
2022-08-01T15:40:15.676Z,1.00
2022-08-01T15:41:48.096Z,1.00
2022-08-01T15:43:20.533Z,1.00
2022-08-01T15:44:52.824Z,1.00
2022-08-01T15:46:25.320Z,1.00
2022-08-01T15:47:57.511Z,1.00
2022-08-01T15:49:30.261Z,1.00
2022-08-01T15:51:02.505Z,1.00
2022-08-01T15:52:35.208Z,1.00
2022-08-01T15:54:11.604Z,1.00
2022-08-01T15:55:52.732Z,1.00
2022-08-01T15:57:25.247Z,1.00
2022-08-01T15:58:58.325Z,1.00
2022-08-01T16:00:36.099Z,1.00
2022-08-01T16:02:12.062Z,1.00
2022-08-01T16:03:44.499Z,1.00
2022-08-01T16:05:20.205Z,1.00
2022-08-01T16:06:52.979Z,1.00
2022-08-01T16:08:25.223Z,1.00
2022-08-01T16:09:57.436Z,1.00
2022-08-01T16:11:29.901Z,1.00
2022-08-01T16:13:05.696Z,1.00
2022-08-01T16:14:39.843Z,1.00
2022-08-01T16:16:13.959Z,1.00
2022-08-01T16:17:46.341Z,1.00
2022-08-01T16:19:19.498Z,1.00
2022-08-01T16:20:51.844Z,1.00
2022-08-01T16:22:24.089Z,1.00
2022-08-01T16:23:56.451Z,1.00
2022-08-01T16:25:28.603Z,1.00
2022-08-01T16:27:00.768Z,1.00
2022-08-01T16:28:33.167Z,1.00
2022-08-01T16:30:06.304Z,1.00
2022-08-01T16:31:52.191Z,1.00
2022-08-01T16:33:39.521Z,1.00
2022-08-01T16:35:24.460Z,1.00
2022-08-01T16:36:59.748Z,1.00
2022-08-01T16:38:31.880Z,1.00
2022-08-01T16:40:04.900Z,1.00
2022-08-01T16:41:37.586Z,1.00
2022-08-01T16:43:11.017Z,1.00
2022-08-01T16:44:44.948Z,1.00
2022-08-01T16:46:17.271Z,1.00
2022-08-01T16:47:49.865Z,1.00
2022-08-01T16:49:22.388Z,1.00
2022-08-01T16:50:54.725Z,1.00
2022-08-01T16:52:28.548Z,1.00
2022-08-01T16:54:01.558Z,1.00
2022-08-01T16:55:49.212Z,1.00
2022-08-01T16:57:22.141Z,1.00
2022-08-01T16:58:54.287Z,1.00
2022-08-01T17:00:28.001Z,1.00
2022-08-01T17:02:02.494Z,1.00
2022-08-01T17:03:52.694Z,1.00
2022-08-01T17:05:28.521Z,1.00
2022-08-01T17:07:00.874Z,1.00
2022-08-01T17:08:33.066Z,1.00
2022-08-01T17:10:07.345Z,1.00
2022-08-01T17:11:39.488Z,1.00
2022-08-01T17:13:12.060Z,1.00
2022-08-01T17:14:44.207Z,1.00
2022-08-01T17:16:19.245Z,1.00
2022-08-01T17:17:54.193Z,1.00
2022-08-01T17:19:32.476Z,1.00
2022-08-01T17:21:05.428Z,1.00
2022-08-01T17:22:37.646Z,1.00
2022-08-01T17:24:10.188Z,1.00
2022-08-01T17:25:44.604Z,1.00
2022-08-01T17:27:17.211Z,1.00
2022-08-01T17:28:49.739Z,1.00
2022-08-01T17:30:22.119Z,1.00
2022-08-01T17:31:54.588Z,1.00
2022-08-01T17:33:44.320Z,1.00
2022-08-01T17:35:19.220Z,1.00
2022-08-01T17:36:51.673Z,1.00
2022-08-01T17:38:24.180Z,1.00
2022-08-01T17:39:56.470Z,1.00
2022-08-01T17:41:28.994Z,1.00
2022-08-01T17:43:01.146Z,1.00
2022-08-01T17:44:37.512Z,1.00
2022-08-01T17:46:09.929Z,1.00
2022-08-01T17:47:50.800Z,1.00
2022-08-01T17:49:52.139Z,1.00
2022-08-01T17:51:22.642Z,1.00
2022-08-01T17:52:55.155Z,1.00
2022-08-01T17:54:27.345Z,1.00
2022-08-01T17:56:01.558Z,1.00
2022-08-01T17:57:34.288Z,1.00
2022-08-01T17:59:06.467Z,1.00
2022-08-01T18:00:39.491Z,1.00
2022-08-01T18:02:11.948Z,1.00
2022-08-01T18:03:45.426Z,1.00
2022-08-01T18:05:17.640Z,1.00
2022-08-01T18:06:58.516Z,1.00
2022-08-01T18:08:31.335Z,1.00
2022-08-01T18:10:05.343Z,1.00
2022-08-01T18:11:43.809Z,1.00
2022-08-01T18:13:18.340Z,1.00
2022-08-01T18:14:54.875Z,1.00
2022-08-01T18:16:29.028Z,1.00
2022-08-01T18:18:01.688Z,1.00
2022-08-01T18:19:34.161Z,1.00
2022-08-01T18:21:07.964Z,1.00
2022-08-01T18:22:41.675Z,1.00
2022-08-01T18:24:17.335Z,1.00
2022-08-01T18:25:49.665Z,1.00
2022-08-01T18:27:21.871Z,1.00
2022-08-01T18:28:54.286Z,1.00
2022-08-01T18:30:27.130Z,1.00
2022-08-01T18:32:03.103Z,1.00
2022-08-01T18:33:36.504Z,1.00
2022-08-01T18:35:12.008Z,1.00
2022-08-01T18:36:46.475Z,1.00
2022-08-01T18:38:18.653Z,1.00
2022-08-01T18:39:52.340Z,1.00
2022-08-01T18:41:27.120Z,1.00
2022-08-01T18:42:59.276Z,1.00
2022-08-01T18:44:32.552Z,1.00
2022-08-01T18:46:06.392Z,1.00
2022-08-01T18:47:39.364Z,1.00
2022-08-01T18:49:12.855Z,1.00
2022-08-01T18:50:45.062Z,1.00
2022-08-01T18:52:17.221Z,1.00
2022-08-01T18:53:49.544Z,1.00
2022-08-01T18:55:21.932Z,1.00
2022-08-01T18:56:54.147Z,1.00
2022-08-01T18:58:26.499Z,1.00
2022-08-01T18:59:58.868Z,1.00
2022-08-01T19:01:31.156Z,1.00
2022-08-01T19:03:04.288Z,1.00
2022-08-01T19:04:36.668Z,1.00
2022-08-01T19:06:09.697Z,1.00
2022-08-01T19:08:04.933Z,1.00
2022-08-01T19:09:34.081Z,1.00
2022-08-01T19:11:07.325Z,1.00
2022-08-01T19:12:40.314Z,1.00
2022-08-01T19:14:12.465Z,1.00
2022-08-01T19:15:45.007Z,1.00
2022-08-01T19:17:18.516Z,1.00
2022-08-01T19:18:50.919Z,1.00
2022-08-01T19:20:24.277Z,1.00
2022-08-01T19:21:56.531Z,1.00
2022-08-01T19:23:47.416Z,1.00
2022-08-01T19:25:20.529Z,1.00
2022-08-01T19:26:59.735Z,1.00
2022-08-01T19:28:46.806Z,1.00
2022-08-01T19:30:19.642Z,1.00
2022-08-01T19:31:54.172Z,1.00
2022-08-01T19:33:28.893Z,1.00
2022-08-01T19:35:13.140Z,1.00
2022-08-01T19:36:48.163Z,1.00
2022-08-01T19:38:20.587Z,1.00
2022-08-01T19:39:52.886Z,1.00
2022-08-01T19:41:25.111Z,1.00
2022-08-01T19:42:57.622Z,1.00
2022-08-01T19:44:30.267Z,1.00
2022-08-01T19:46:06.581Z,1.00
2022-08-01T19:47:56.554Z,1.00
2022-08-01T19:49:29.789Z,1.00
2022-08-01T19:51:05.248Z,1.00
2022-08-01T19:52:39.470Z,1.00
2022-08-01T19:54:14.089Z,1.00
2022-08-01T19:55:48.352Z,1.00
2022-08-01T19:57:23.532Z,1.00
2022-08-01T19:59:00.089Z,1.00
2022-08-01T20:00:36.869Z,1.00
2022-08-01T20:02:09.190Z,1.00
2022-08-01T20:03:43.120Z,1.00
2022-08-01T20:05:15.472Z,1.00
2022-08-01T20:06:48.271Z,1.00
2022-08-01T20:08:21.833Z,1.00
2022-08-01T20:09:55.865Z,1.00
2022-08-01T20:11:28.450Z,1.00
2022-08-01T20:13:02.377Z,1.00
2022-08-01T20:14:34.905Z,1.00
2022-08-01T20:16:08.718Z,1.00
2022-08-01T20:17:41.948Z,1.00
2022-08-01T20:19:16.095Z,1.00
2022-08-01T20:20:52.231Z,1.00
2022-08-01T20:22:32.589Z,1.00
2022-08-01T20:24:11.046Z,1.00
2022-08-01T20:25:49.589Z,1.00
2022-08-01T20:27:26.817Z,1.00
2022-08-01T20:29:02.591Z,1.00
2022-08-01T20:30:35.203Z,1.00
2022-08-01T20:32:08.722Z,1.00
2022-08-01T20:33:47.065Z,1.00
2022-08-01T20:35:51.721Z,1.00
2022-08-01T20:37:12.881Z,1.00
2022-08-01T20:38:46.558Z,1.00
2022-08-01T20:40:25.220Z,1.00
2022-08-01T20:42:01.554Z,1.00
2022-08-01T20:43:34.263Z,1.00
2022-08-01T20:45:07.261Z,1.00
2022-08-01T20:46:39.737Z,1.00
2022-08-01T20:48:12.817Z,1.00
2022-08-01T20:49:45.007Z,1.00
2022-08-01T20:51:19.493Z,1.00
2022-08-01T20:52:51.913Z,1.00
2022-08-01T20:54:24.392Z,1.00
2022-08-01T20:56:04.535Z,1.00
2022-08-01T20:57:37.680Z,1.00
2022-08-01T20:59:39.720Z,1.00
2022-08-01T21:01:12.150Z,1.00
2022-08-01T21:03:01.413Z,1.00
2022-08-01T21:05:06.163Z,1.00
2022-08-01T21:06:45.141Z,1.00
2022-08-01T21:08:42.172Z,1.00
2022-08-01T21:10:18.899Z,1.00
2022-08-01T21:12:03.416Z,1.00
2022-08-01T21:13:49.044Z,1.00